Terminal Aerodrome Forecast
Issued by NWS

Home | Current Version | Previous Version | Text Only | Print | Product List | Glossary On
Versions: 1 2 3 4 5 6 7 8 9 10 11 12 13 14 15
114
FTUS45 KPIH 072320
TAFSUN
TAF
KSUN 072320Z 0800/0824 13006KT P6SM FEW100
     FM080200 31009KT P6SM SCT200
     FM081900 12007KT P6SM SCT200
      AMD LTD TO CLD VIS AND WIND 0806/0814=

USA.gov is the U.S. government's official web portal to all federal, state and local government web resources and services.